sensor_id;sensor_type;location;lat;lon;timestamp;temperature;humidity
62573;DHT22;48626;51.678;5.806;2023-02-03T00:00:32;9.50;99.90
62573;DHT22;48626;51.678;5.806;2023-02-03T00:02:57;9.50;99.90
62573;DHT22;48626;51.678;5.806;2023-02-03T00:05:23;9.50;99.90
62573;DHT22;48626;51.678;5.806;2023-02-03T00:07:50;9.50;99.90
62573;DHT22;48626;51.678;5.806;2023-02-03T00:10:16;9.50;99.90
62573;DHT22;48626;51.678;5.806;2023-02-03T00:12:47;9.50;99.90
62573;DHT22;48626;51.678;5.806;2023-02-03T00:15:13;9.50;99.90
62573;DHT22;48626;51.678;5.806;2023-02-03T00:17:38;9.50;99.90
62573;DHT22;48626;51.678;5.806;2023-02-03T00:20:04;9.50;99.90
62573;DHT22;48626;51.678;5.806;2023-02-03T00:22:30;9.50;99.90
62573;DHT22;48626;51.678;5.806;2023-02-03T00:24:56;9.50;99.90
62573;DHT22;48626;51.678;5.806;2023-02-03T00:27:21;9.60;99.90
62573;DHT22;48626;51.678;5.806;2023-02-03T00:29:47;9.50;99.90
62573;DHT22;48626;51.678;5.806;2023-02-03T00:32:13;9.50;99.90
62573;DHT22;48626;51.678;5.806;2023-02-03T00:34:38;9.50;99.90
62573;DHT22;48626;51.678;5.806;2023-02-03T00:37:04;9.50;99.90
62573;DHT22;48626;51.678;5.806;2023-02-03T00:39:29;9.60;99.90
62573;DHT22;48626;51.678;5.806;2023-02-03T00:41:55;9.50;99.90
62573;DHT22;48626;51.678;5.806;2023-02-03T00:44:21;9.50;99.90
62573;DHT22;48626;51.678;5.806;2023-02-03T00:46:46;9.50;99.90
62573;DHT22;48626;51.678;5.806;2023-02-03T00:49:12;9.50;99.90
62573;DHT22;48626;51.678;5.806;2023-02-03T00:51:38;9.50;99.90
62573;DHT22;48626;51.678;5.806;2023-02-03T00:54:04;9.60;99.90
62573;DHT22;48626;51.678;5.806;2023-02-03T00:56:30;9.50;99.90
62573;DHT22;48626;51.678;5.806;2023-02-03T00:58:56;9.60;99.90
62573;DHT22;48626;51.678;5.806;2023-02-03T01:01:22;9.50;99.90
62573;DHT22;48626;51.678;5.806;2023-02-03T01:03:47;9.60;99.90
62573;DHT22;48626;51.678;5.806;2023-02-03T01:06:16;9.60;99.90
62573;DHT22;48626;51.678;5.806;2023-02-03T01:08:43;9.60;99.90
62573;DHT22;48626;51.678;5.806;2023-02-03T01:11:11;9.60;99.90
62573;DHT22;48626;51.678;5.806;2023-02-03T01:13:38;9.60;99.90
62573;DHT22;48626;51.678;5.806;2023-02-03T01:16:07;9.60;99.90
62573;DHT22;48626;51.678;5.806;2023-02-03T01:18:33;9.70;99.90
62573;DHT22;48626;51.678;5.806;2023-02-03T01:21:06;9.60;99.90
62573;DHT22;48626;51.678;5.806;2023-02-03T01:23:33;9.60;99.90
62573;DHT22;48626;51.678;5.806;2023-02-03T01:26:07;9.60;99.90
62573;DHT22;48626;51.678;5.806;2023-02-03T01:28:34;9.70;99.90
62573;DHT22;48626;51.678;5.806;2023-02-03T01:33:35;9.70;99.90
62573;DHT22;48626;51.678;5.806;2023-02-03T01:36:01;9.60;99.90
62573;DHT22;48626;51.678;5.806;2023-02-03T01:38:26;9.70;99.90
62573;DHT22;48626;51.678;5.806;2023-02-03T01:40:52;9.60;99.90
62573;DHT22;48626;51.678;5.806;2023-02-03T01:43:50;9.70;99.90
62573;DHT22;48626;51.678;5.806;2023-02-03T01:48:52;9.70;99.90
62573;DHT22;48626;51.678;5.806;2023-02-03T01:51:19;9.60;99.90
62573;DHT22;48626;51.678;5.806;2023-02-03T01:53:45;9.60;99.90
62573;DHT22;48626;51.678;5.806;2023-02-03T01:56:11;9.70;99.90
62573;DHT22;48626;51.678;5.806;2023-02-03T01:58:40;9.70;99.90
62573;DHT22;48626;51.678;5.806;2023-02-03T02:01:06;9.70;99.90
62573;DHT22;48626;51.678;5.806;2023-02-03T02:03:49;9.70;99.90
62573;DHT22;48626;51.678;5.806;2023-02-03T02:06:17;9.70;99.90
62573;DHT22;48626;51.678;5.806;2023-02-03T02:08:45;9.70;99.90
62573;DHT22;48626;51.678;5.806;2023-02-03T02:11:12;9.70;99.90
62573;DHT22;48626;51.678;5.806;2023-02-03T02:13:38;9.60;99.90
62573;DHT22;48626;51.678;5.806;2023-02-03T02:28:01;9.60;99.90
62573;DHT22;48626;51.678;5.806;2023-02-03T02:30:46;9.60;99.90
62573;DHT22;48626;51.678;5.806;2023-02-03T02:33:31;9.60;99.90
62573;DHT22;48626;51.678;5.806;2023-02-03T02:39:56;9.60;99.90
62573;DHT22;48626;51.678;5.806;2023-02-03T02:42:21;9.60;99.90
62573;DHT22;48626;51.678;5.806;2023-02-03T02:44:52;9.60;99.90
62573;DHT22;48626;51.678;5.806;2023-02-03T02:47:22;9.60;99.90
62573;DHT22;48626;51.678;5.806;2023-02-03T02:50:07;9.60;99.90
62573;DHT22;48626;51.678;5.806;2023-02-03T02:52:39;9.60;99.90
62573;DHT22;48626;51.678;5.806;2023-02-03T02:55:14;9.70;99.90
62573;DHT22;48626;51.678;5.806;2023-02-03T02:57:41;9.70;99.90
62573;DHT22;48626;51.678;5.806;2023-02-03T03:00:12;9.70;99.90
62573;DHT22;48626;51.678;5.806;2023-02-03T03:02:38;9.70;99.90
62573;DHT22;48626;51.678;5.806;2023-02-03T03:05:07;9.70;99.90
62573;DHT22;48626;51.678;5.806;2023-02-03T03:07:38;9.70;99.90
62573;DHT22;48626;51.678;5.806;2023-02-03T03:10:10;9.70;99.90
62573;DHT22;48626;51.678;5.806;2023-02-03T03:12:40;9.70;99.90
62573;DHT22;48626;51.678;5.806;2023-02-03T03:15:17;9.70;99.90
62573;DHT22;48626;51.678;5.806;2023-02-03T03:18:33;9.70;99.90
62573;DHT22;48626;51.678;5.806;2023-02-03T03:20:35;9.70;99.90
62573;DHT22;48626;51.678;5.806;2023-02-03T03:25:54;9.70;99.90
62573;DHT22;48626;51.678;5.806;2023-02-03T03:28:29;9.70;99.90
62573;DHT22;48626;51.678;5.806;2023-02-03T03:30:57;9.70;99.90
62573;DHT22;48626;51.678;5.806;2023-02-03T03:33:23;9.70;99.90
62573;DHT22;48626;51.678;5.806;2023-02-03T03:39:08;9.70;99.90
62573;DHT22;48626;51.678;5.806;2023-02-03T03:44:15;9.70;99.90
62573;DHT22;48626;51.678;5.806;2023-02-03T03:46:52;9.70;99.90
62573;DHT22;48626;51.678;5.806;2023-02-03T03:49:20;9.70;99.90
62573;DHT22;48626;51.678;5.806;2023-02-03T03:51:59;9.70;99.90
62573;DHT22;48626;51.678;5.806;2023-02-03T03:54:29;9.80;99.90
62573;DHT22;48626;51.678;5.806;2023-02-03T03:57:04;9.80;99.90
62573;DHT22;48626;51.678;5.806;2023-02-03T03:59:35;9.80;99.90
62573;DHT22;48626;51.678;5.806;2023-02-03T04:02:03;9.80;99.90
62573;DHT22;48626;51.678;5.806;2023-02-03T04:04:31;9.80;99.90
62573;DHT22;48626;51.678;5.806;2023-02-03T04:06:57;9.80;99.90
62573;DHT22;48626;51.678;5.806;2023-02-03T04:09:23;9.80;99.90
62573;DHT22;48626;51.678;5.806;2023-02-03T04:11:49;9.80;99.90
62573;DHT22;48626;51.678;5.806;2023-02-03T04:14:32;9.80;99.90
62573;DHT22;48626;51.678;5.806;2023-02-03T04:16:59;9.80;99.90
62573;DHT22;48626;51.678;5.806;2023-02-03T04:19:25;9.80;99.90
62573;DHT22;48626;51.678;5.806;2023-02-03T04:21:50;9.90;99.90
62573;DHT22;48626;51.678;5.806;2023-02-03T04:24:16;9.90;99.90
62573;DHT22;48626;51.678;5.806;2023-02-03T04:26:42;9.90;99.90
62573;DHT22;48626;51.678;5.806;2023-02-03T04:29:08;9.90;99.90
62573;DHT22;48626;51.678;5.806;2023-02-03T04:31:34;9.90;99.90
62573;DHT22;48626;51.678;5.806;2023-02-03T04:33:59;9.90;99.90
62573;DHT22;48626;51.678;5.806;2023-02-03T04:36:25;9.90;99.90
62573;DHT22;48626;51.678;5.806;2023-02-03T04:38:51;10.00;99.90
62573;DHT22;48626;51.678;5.806;2023-02-03T04:41:17;10.00;99.90
62573;DHT22;48626;51.678;5.806;2023-02-03T04:43:42;10.00;99.90
62573;DHT22;48626;51.678;5.806;2023-02-03T04:46:08;10.00;99.90
62573;DHT22;48626;51.678;5.806;2023-02-03T04:48:35;10.10;99.90
62573;DHT22;48626;51.678;5.806;2023-02-03T04:51:05;10.10;99.90
62573;DHT22;48626;51.678;5.806;2023-02-03T04:53:32;10.00;99.90
62573;DHT22;48626;51.678;5.806;2023-02-03T04:55:58;10.00;99.90
62573;DHT22;48626;51.678;5.806;2023-02-03T04:58:24;10.00;99.90
62573;DHT22;48626;51.678;5.806;2023-02-03T05:00:52;10.10;99.90
62573;DHT22;48626;51.678;5.806;2023-02-03T05:03:17;10.10;99.90
62573;DHT22;48626;51.678;5.806;2023-02-03T05:05:43;10.00;99.90
62573;DHT22;48626;51.678;5.806;2023-02-03T05:08:09;10.10;99.90
62573;DHT22;48626;51.678;5.806;2023-02-03T05:10:34;10.10;99.90
62573;DHT22;48626;51.678;5.806;2023-02-03T05:13:00;10.00;99.90
62573;DHT22;48626;51.678;5.806;2023-02-03T05:15:26;10.10;99.90
62573;DHT22;48626;51.678;5.806;2023-02-03T05:17:52;10.10;99.90
62573;DHT22;48626;51.678;5.806;2023-02-03T05:20:18;10.10;99.90
62573;DHT22;48626;51.678;5.806;2023-02-03T05:22:44;10.10;99.90
62573;DHT22;48626;51.678;5.806;2023-02-03T05:25:09;10.20;99.90
62573;DHT22;48626;51.678;5.806;2023-02-03T05:27:37;10.10;99.90
62573;DHT22;48626;51.678;5.806;2023-02-03T05:30:03;10.20;99.90
62573;DHT22;48626;51.678;5.806;2023-02-03T05:32:29;10.20;99.90
62573;DHT22;48626;51.678;5.806;2023-02-03T05:34:54;10.20;99.90
62573;DHT22;48626;51.678;5.806;2023-02-03T05:37:20;10.20;99.90
62573;DHT22;48626;51.678;5.806;2023-02-03T05:39:46;10.20;99.90
62573;DHT22;48626;51.678;5.806;2023-02-03T05:42:11;10.20;99.90
62573;DHT22;48626;51.678;5.806;2023-02-03T05:44:37;10.20;99.90
62573;DHT22;48626;51.678;5.806;2023-02-03T05:47:03;10.20;99.90
62573;DHT22;48626;51.678;5.806;2023-02-03T05:49:28;10.20;99.90
62573;DHT22;48626;51.678;5.806;2023-02-03T05:51:55;10.20;99.90
62573;DHT22;48626;51.678;5.806;2023-02-03T05:54:21;10.20;99.90
62573;DHT22;48626;51.678;5.806;2023-02-03T05:56:47;10.20;99.90
62573;DHT22;48626;51.678;5.806;2023-02-03T05:59:13;10.20;99.90
62573;DHT22;48626;51.678;5.806;2023-02-03T06:01:39;10.20;99.90
62573;DHT22;48626;51.678;5.806;2023-02-03T06:04:05;10.20;99.90
62573;DHT22;48626;51.678;5.806;2023-02-03T06:06:30;10.20;99.90
62573;DHT22;48626;51.678;5.806;2023-02-03T06:09:00;10.20;99.90
62573;DHT22;48626;51.678;5.806;2023-02-03T06:11:27;10.20;99.90
62573;DHT22;48626;51.678;5.806;2023-02-03T06:13:53;10.20;99.90
62573;DHT22;48626;51.678;5.806;2023-02-03T06:16:20;10.20;99.90
62573;DHT22;48626;51.678;5.806;2023-02-03T06:18:46;10.20;99.90
62573;DHT22;48626;51.678;5.806;2023-02-03T06:21:12;10.20;99.90
62573;DHT22;48626;51.678;5.806;2023-02-03T06:23:38;10.20;99.90
62573;DHT22;48626;51.678;5.806;2023-02-03T06:26:04;10.20;99.90
62573;DHT22;48626;51.678;5.806;2023-02-03T06:28:29;10.20;99.90
62573;DHT22;48626;51.678;5.806;2023-02-03T06:30:58;10.20;99.90
62573;DHT22;48626;51.678;5.806;2023-02-03T06:33:23;10.30;99.90
62573;DHT22;48626;51.678;5.806;2023-02-03T06:35:49;10.20;99.90
62573;DHT22;48626;51.678;5.806;2023-02-03T06:38:14;10.20;99.90
62573;DHT22;48626;51.678;5.806;2023-02-03T06:40:40;10.20;99.90
62573;DHT22;48626;51.678;5.806;2023-02-03T06:43:06;10.20;99.90
62573;DHT22;48626;51.678;5.806;2023-02-03T06:45:31;10.20;99.90
62573;DHT22;48626;51.678;5.806;2023-02-03T06:47:57;10.30;99.90
62573;DHT22;48626;51.678;5.806;2023-02-03T06:50:23;10.20;99.90
62573;DHT22;48626;51.678;5.806;2023-02-03T06:52:49;10.20;99.90
62573;DHT22;48626;51.678;5.806;2023-02-03T06:55:15;10.20;99.90
62573;DHT22;48626;51.678;5.806;2023-02-03T06:57:45;10.20;99.90
62573;DHT22;48626;51.678;5.806;2023-02-03T07:00:11;10.20;99.90
62573;DHT22;48626;51.678;5.806;2023-02-03T07:02:38;10.20;99.90
62573;DHT22;48626;51.678;5.806;2023-02-03T07:05:03;10.20;99.90
62573;DHT22;48626;51.678;5.806;2023-02-03T07:07:29;10.20;99.90
62573;DHT22;48626;51.678;5.806;2023-02-03T07:09:56;10.20;99.90
62573;DHT22;48626;51.678;5.806;2023-02-03T07:12:22;10.20;99.90
62573;DHT22;48626;51.678;5.806;2023-02-03T07:14:47;10.20;99.90
62573;DHT22;48626;51.678;5.806;2023-02-03T07:17:13;10.20;99.90
62573;DHT22;48626;51.678;5.806;2023-02-03T07:19:39;10.20;99.90
62573;DHT22;48626;51.678;5.806;2023-02-03T07:22:04;10.20;99.90
62573;DHT22;48626;51.678;5.806;2023-02-03T07:24:30;10.20;99.90
62573;DHT22;48626;51.678;5.806;2023-02-03T07:26:56;10.20;99.90
62573;DHT22;48626;51.678;5.806;2023-02-03T07:29:21;10.30;99.90
62573;DHT22;48626;51.678;5.806;2023-02-03T07:31:47;10.20;99.90
62573;DHT22;48626;51.678;5.806;2023-02-03T07:34:12;10.30;99.90
62573;DHT22;48626;51.678;5.806;2023-02-03T07:36:38;10.30;99.90
62573;DHT22;48626;51.678;5.806;2023-02-03T07:39:04;10.30;99.90
62573;DHT22;48626;51.678;5.806;2023-02-03T07:41:30;10.30;99.90
62573;DHT22;48626;51.678;5.806;2023-02-03T07:43:55;10.20;99.90
62573;DHT22;48626;51.678;5.806;2023-02-03T07:46:21;10.30;99.90
62573;DHT22;48626;51.678;5.806;2023-02-03T07:48:46;10.30;99.90
62573;DHT22;48626;51.678;5.806;2023-02-03T07:51:12;10.30;99.90
62573;DHT22;48626;51.678;5.806;2023-02-03T07:53:38;10.30;99.90
62573;DHT22;48626;51.678;5.806;2023-02-03T07:56:04;10.30;99.90
62573;DHT22;48626;51.678;5.806;2023-02-03T07:58:30;10.30;99.90
62573;DHT22;48626;51.678;5.806;2023-02-03T08:00:57;10.30;99.90
62573;DHT22;48626;51.678;5.806;2023-02-03T08:03:22;10.40;99.90
62573;DHT22;48626;51.678;5.806;2023-02-03T08:05:48;10.30;99.90
62573;DHT22;48626;51.678;5.806;2023-02-03T08:08:14;10.40;99.90
62573;DHT22;48626;51.678;5.806;2023-02-03T08:10:40;10.40;99.90
62573;DHT22;48626;51.678;5.806;2023-02-03T08:13:05;10.40;99.90
62573;DHT22;48626;51.678;5.806;2023-02-03T08:15:31;10.40;99.90
62573;DHT22;48626;51.678;5.806;2023-02-03T08:17:57;10.40;99.90
62573;DHT22;48626;51.678;5.806;2023-02-03T08:20:22;10.40;99.90
62573;DHT22;48626;51.678;5.806;2023-02-03T08:22:48;10.40;99.90
62573;DHT22;48626;51.678;5.806;2023-02-03T08:25:14;10.40;99.90
62573;DHT22;48626;51.678;5.806;2023-02-03T08:27:40;10.40;99.90
62573;DHT22;48626;51.678;5.806;2023-02-03T08:30:08;10.40;99.90
62573;DHT22;48626;51.678;5.806;2023-02-03T08:32:34;10.40;99.90
62573;DHT22;48626;51.678;5.806;2023-02-03T08:35:00;10.40;99.90
62573;DHT22;48626;51.678;5.806;2023-02-03T08:37:26;10.40;99.90
62573;DHT22;48626;51.678;5.806;2023-02-03T08:39:52;10.40;99.90
62573;DHT22;48626;51.678;5.806;2023-02-03T08:42:19;10.40;99.90
62573;DHT22;48626;51.678;5.806;2023-02-03T08:44:45;10.40;99.90
62573;DHT22;48626;51.678;5.806;2023-02-03T08:47:11;10.40;99.90
62573;DHT22;48626;51.678;5.806;2023-02-03T08:49:38;10.50;99.90
62573;DHT22;48626;51.678;5.806;2023-02-03T08:52:09;10.50;99.90
62573;DHT22;48626;51.678;5.806;2023-02-03T08:54:35;10.50;99.90
62573;DHT22;48626;51.678;5.806;2023-02-03T08:57:01;10.50;99.90
62573;DHT22;48626;51.678;5.806;2023-02-03T08:59:26;10.50;99.90
62573;DHT22;48626;51.678;5.806;2023-02-03T09:01:53;10.50;99.90
62573;DHT22;48626;51.678;5.806;2023-02-03T09:04:19;10.60;99.90
62573;DHT22;48626;51.678;5.806;2023-02-03T09:06:50;10.60;99.90
62573;DHT22;48626;51.678;5.806;2023-02-03T09:09:16;10.60;99.90
62573;DHT22;48626;51.678;5.806;2023-02-03T09:11:42;10.60;99.90
62573;DHT22;48626;51.678;5.806;2023-02-03T09:14:08;10.60;99.90
62573;DHT22;48626;51.678;5.806;2023-02-03T09:16:35;10.60;99.90
62573;DHT22;48626;51.678;5.806;2023-02-03T09:19:01;10.60;99.90
62573;DHT22;48626;51.678;5.806;2023-02-03T09:21:27;10.70;99.90
62573;DHT22;48626;51.678;5.806;2023-02-03T09:23:52;10.70;99.90
62573;DHT22;48626;51.678;5.806;2023-02-03T09:26:18;10.70;99.90
62573;DHT22;48626;51.678;5.806;2023-02-03T09:28:44;10.80;99.90
62573;DHT22;48626;51.678;5.806;2023-02-03T09:31:11;10.80;99.90
62573;DHT22;48626;51.678;5.806;2023-02-03T09:33:38;10.80;99.90
62573;DHT22;48626;51.678;5.806;2023-02-03T09:36:04;10.80;99.90
62573;DHT22;48626;51.678;5.806;2023-02-03T09:38:31;10.80;99.90
62573;DHT22;48626;51.678;5.806;2023-02-03T09:44:00;10.80;99.90
62573;DHT22;48626;51.678;5.806;2023-02-03T09:46:32;10.90;99.90
62573;DHT22;48626;51.678;5.806;2023-02-03T09:49:16;10.90;99.90
62573;DHT22;48626;51.678;5.806;2023-02-03T09:51:48;10.90;99.90
62573;DHT22;48626;51.678;5.806;2023-02-03T09:57:33;10.90;99.90
62573;DHT22;48626;51.678;5.806;2023-02-03T10:00:02;10.90;99.90
62573;DHT22;48626;51.678;5.806;2023-02-03T10:19:44;11.20;99.90
62573;DHT22;48626;51.678;5.806;2023-02-03T10:22:15;11.20;99.90
62573;DHT22;48626;51.678;5.806;2023-02-03T10:25:00;11.30;99.90
62573;DHT22;48626;51.678;5.806;2023-02-03T10:27:28;11.30;99.90
62573;DHT22;48626;51.678;5.806;2023-02-03T10:29:59;11.30;99.90
62573;DHT22;48626;51.678;5.806;2023-02-03T10:32:27;11.40;99.90
62573;DHT22;48626;51.678;5.806;2023-02-03T10:34:54;11.30;99.90
62573;DHT22;48626;51.678;5.806;2023-02-03T10:37:32;11.30;99.90
62573;DHT22;48626;51.678;5.806;2023-02-03T10:40:00;11.40;99.90
62573;DHT22;48626;51.678;5.806;2023-02-03T10:42:28;11.40;99.90
62573;DHT22;48626;51.678;5.806;2023-02-03T10:45:14;11.40;99.90
62573;DHT22;48626;51.678;5.806;2023-02-03T10:47:45;11.40;99.90
62573;DHT22;48626;51.678;5.806;2023-02-03T10:50:20;11.50;99.90
62573;DHT22;48626;51.678;5.806;2023-02-03T10:52:46;11.50;99.90
62573;DHT22;48626;51.678;5.806;2023-02-03T10:57:47;11.50;99.90
62573;DHT22;48626;51.678;5.806;2023-02-03T11:02:42;11.60;99.90
62573;DHT22;48626;51.678;5.806;2023-02-03T11:05:20;11.60;99.90
62573;DHT22;48626;51.678;5.806;2023-02-03T11:07:46;11.70;99.90
62573;DHT22;48626;51.678;5.806;2023-02-03T11:13:22;11.70;99.90
62573;DHT22;48626;51.678;5.806;2023-02-03T11:16:14;11.70;99.90
62573;DHT22;48626;51.678;5.806;2023-02-03T11:21:15;11.80;99.90
62573;DHT22;48626;51.678;5.806;2023-02-03T11:26:22;11.70;99.90
62573;DHT22;48626;51.678;5.806;2023-02-03T11:28:52;11.70;99.90
62573;DHT22;48626;51.678;5.806;2023-02-03T11:31:30;11.70;99.90
62573;DHT22;48626;51.678;5.806;2023-02-03T11:34:00;11.60;99.90
62573;DHT22;48626;51.678;5.806;2023-02-03T11:36:29;11.60;99.90
62573;DHT22;48626;51.678;5.806;2023-02-03T11:41:37;11.60;99.90
62573;DHT22;48626;51.678;5.806;2023-02-03T11:44:11;11.60;99.90
62573;DHT22;48626;51.678;5.806;2023-02-03T11:46:38;11.60;99.90
62573;DHT22;48626;51.678;5.806;2023-02-03T11:49:20;11.60;99.90
62573;DHT22;48626;51.678;5.806;2023-02-03T11:54:47;11.50;99.90
62573;DHT22;48626;51.678;5.806;2023-02-03T11:57:39;11.60;99.90
62573;DHT22;48626;51.678;5.806;2023-02-03T12:08:48;11.50;99.90
62573;DHT22;48626;51.678;5.806;2023-02-03T12:22:56;11.60;99.90
62573;DHT22;48626;51.678;5.806;2023-02-03T12:25:47;11.60;99.90
62573;DHT22;48626;51.678;5.806;2023-02-03T12:28:44;11.60;99.90
62573;DHT22;48626;51.678;5.806;2023-02-03T12:33:47;11.60;99.90
62573;DHT22;48626;51.678;5.806;2023-02-03T12:36:22;11.70;99.90
62573;DHT22;48626;51.678;5.806;2023-02-03T12:41:56;11.70;99.90
62573;DHT22;48626;51.678;5.806;2023-02-03T12:44:30;11.70;99.90
62573;DHT22;48626;51.678;5.806;2023-02-03T12:47:15;11.80;99.90
62573;DHT22;48626;51.678;5.806;2023-02-03T12:49:49;11.80;99.90
62573;DHT22;48626;51.678;5.806;2023-02-03T12:52:39;11.80;99.90
62573;DHT22;48626;51.678;5.806;2023-02-03T12:55:35;11.80;99.90
62573;DHT22;48626;51.678;5.806;2023-02-03T12:58:22;11.80;99.90
62573;DHT22;48626;51.678;5.806;2023-02-03T13:09:36;11.90;99.90
62573;DHT22;48626;51.678;5.806;2023-02-03T13:17:07;11.90;99.90
62573;DHT22;48626;51.678;5.806;2023-02-03T13:19:49;12.00;99.90
62573;DHT22;48626;51.678;5.806;2023-02-03T13:22:17;12.00;99.90
62573;DHT22;48626;51.678;5.806;2023-02-03T13:24:48;11.90;99.90
62573;DHT22;48626;51.678;5.806;2023-02-03T13:27:32;12.00;99.90
62573;DHT22;48626;51.678;5.806;2023-02-03T13:33:02;11.70;99.90
62573;DHT22;48626;51.678;5.806;2023-02-03T13:38:41;11.70;99.90
62573;DHT22;48626;51.678;5.806;2023-02-03T13:41:20;11.70;99.90
62573;DHT22;48626;51.678;5.806;2023-02-03T13:43:49;11.80;99.90
62573;DHT22;48626;51.678;5.806;2023-02-03T13:46:36;11.70;99.90
62573;DHT22;48626;51.678;5.806;2023-02-03T13:49:05;11.80;99.90
62573;DHT22;48626;51.678;5.806;2023-02-03T13:51:44;11.80;99.90
62573;DHT22;48626;51.678;5.806;2023-02-03T13:54:20;11.80;99.90
62573;DHT22;48626;51.678;5.806;2023-02-03T13:56:59;11.80;99.90
62573;DHT22;48626;51.678;5.806;2023-02-03T13:59:42;11.80;99.90
62573;DHT22;48626;51.678;5.806;2023-02-03T14:04:56;11.70;99.90
62573;DHT22;48626;51.678;5.806;2023-02-03T14:12:32;10.60;99.90
62573;DHT22;48626;51.678;5.806;2023-02-03T14:15:02;10.40;99.90
62573;DHT22;48626;51.678;5.806;2023-02-03T14:25:24;10.00;99.90
62573;DHT22;48626;51.678;5.806;2023-02-03T14:28:04;10.00;99.90
62573;DHT22;48626;51.678;5.806;2023-02-03T14:30:32;10.10;99.90
62573;DHT22;48626;51.678;5.806;2023-02-03T14:32:59;10.20;99.90
62573;DHT22;48626;51.678;5.806;2023-02-03T14:35:38;10.40;99.90
62573;DHT22;48626;51.678;5.806;2023-02-03T14:38:08;10.50;99.90
62573;DHT22;48626;51.678;5.806;2023-02-03T14:43:24;10.60;99.90
62573;DHT22;48626;51.678;5.806;2023-02-03T14:54:36;10.90;99.90
62573;DHT22;48626;51.678;5.806;2023-02-03T14:57:08;10.90;99.90
62573;DHT22;48626;51.678;5.806;2023-02-03T15:00:05;10.90;99.90
62573;DHT22;48626;51.678;5.806;2023-02-03T15:02:33;11.00;99.90
62573;DHT22;48626;51.678;5.806;2023-02-03T15:07:44;11.00;99.90
62573;DHT22;48626;51.678;5.806;2023-02-03T15:10:22;11.00;99.90
62573;DHT22;48626;51.678;5.806;2023-02-03T15:12:52;11.10;99.90
62573;DHT22;48626;51.678;5.806;2023-02-03T15:15:31;11.10;99.90
62573;DHT22;48626;51.678;5.806;2023-02-03T15:18:27;11.10;99.90
62573;DHT22;48626;51.678;5.806;2023-02-03T15:20:54;11.10;99.90
62573;DHT22;48626;51.678;5.806;2023-02-03T15:23:42;11.00;99.90
62573;DHT22;48626;51.678;5.806;2023-02-03T15:26:21;11.00;99.90
62573;DHT22;48626;51.678;5.806;2023-02-03T15:31:34;11.10;99.90
62573;DHT22;48626;51.678;5.806;2023-02-03T15:34:43;11.00;99.90
62573;DHT22;48626;51.678;5.806;2023-02-03T15:39:59;11.00;99.90
62573;DHT22;48626;51.678;5.806;2023-02-03T15:45:32;10.90;99.90
62573;DHT22;48626;51.678;5.806;2023-02-03T15:50:52;10.90;99.90
62573;DHT22;48626;51.678;5.806;2023-02-03T15:53:26;10.90;99.90
62573;DHT22;48626;51.678;5.806;2023-02-03T15:56:00;10.90;99.90
62573;DHT22;48626;51.678;5.806;2023-02-03T15:58:32;10.90;99.90
62573;DHT22;48626;51.678;5.806;2023-02-03T16:01:08;10.90;99.90
62573;DHT22;48626;51.678;5.806;2023-02-03T16:03:49;10.80;99.90
62573;DHT22;48626;51.678;5.806;2023-02-03T16:06:25;10.80;99.90
62573;DHT22;48626;51.678;5.806;2023-02-03T16:08:54;10.80;99.90
62573;DHT22;48626;51.678;5.806;2023-02-03T16:11:36;10.70;99.90
62573;DHT22;48626;51.678;5.806;2023-02-03T16:14:21;10.70;99.90
62573;DHT22;48626;51.678;5.806;2023-02-03T16:16:49;10.70;99.90
62573;DHT22;48626;51.678;5.806;2023-02-03T16:19:21;10.60;99.90
62573;DHT22;48626;51.678;5.806;2023-02-03T16:24:38;10.60;99.90
62573;DHT22;48626;51.678;5.806;2023-02-03T16:35:54;10.50;99.90
62573;DHT22;48626;51.678;5.806;2023-02-03T16:38:46;10.40;99.90
62573;DHT22;48626;51.678;5.806;2023-02-03T16:41:31;10.40;99.90
62573;DHT22;48626;51.678;5.806;2023-02-03T16:44:15;10.40;99.90
62573;DHT22;48626;51.678;5.806;2023-02-03T16:47:00;10.40;99.90
62573;DHT22;48626;51.678;5.806;2023-02-03T16:49:44;10.40;99.90
62573;DHT22;48626;51.678;5.806;2023-02-03T16:52:28;10.30;99.90
62573;DHT22;48626;51.678;5.806;2023-02-03T16:54:54;10.30;99.90
62573;DHT22;48626;51.678;5.806;2023-02-03T16:57:19;10.20;99.90
62573;DHT22;48626;51.678;5.806;2023-02-03T16:59:45;10.20;99.90
62573;DHT22;48626;51.678;5.806;2023-02-03T17:02:11;10.10;99.90
62573;DHT22;48626;51.678;5.806;2023-02-03T17:04:36;10.10;99.90
62573;DHT22;48626;51.678;5.806;2023-02-03T17:07:02;10.20;99.90
62573;DHT22;48626;51.678;5.806;2023-02-03T17:09:30;10.20;99.90
62573;DHT22;48626;51.678;5.806;2023-02-03T17:12:00;10.10;99.90
62573;DHT22;48626;51.678;5.806;2023-02-03T17:14:26;10.10;99.90
62573;DHT22;48626;51.678;5.806;2023-02-03T17:16:52;10.10;99.90
62573;DHT22;48626;51.678;5.806;2023-02-03T17:19:18;10.10;99.90
62573;DHT22;48626;51.678;5.806;2023-02-03T17:21:44;10.20;99.90
62573;DHT22;48626;51.678;5.806;2023-02-03T17:24:10;10.20;99.90
62573;DHT22;48626;51.678;5.806;2023-02-03T17:26:36;10.20;99.90
62573;DHT22;48626;51.678;5.806;2023-02-03T17:29:02;10.20;99.90
62573;DHT22;48626;51.678;5.806;2023-02-03T17:31:29;10.10;99.90
62573;DHT22;48626;51.678;5.806;2023-02-03T17:33:55;10.10;99.90
62573;DHT22;48626;51.678;5.806;2023-02-03T17:36:22;10.10;99.90
62573;DHT22;48626;51.678;5.806;2023-02-03T17:38:49;10.10;99.90
62573;DHT22;48626;51.678;5.806;2023-02-03T17:41:19;10.10;99.90
62573;DHT22;48626;51.678;5.806;2023-02-03T17:43:46;10.20;99.90
62573;DHT22;48626;51.678;5.806;2023-02-03T17:46:15;10.10;99.90
62573;DHT22;48626;51.678;5.806;2023-02-03T17:48:41;10.10;99.90
62573;DHT22;48626;51.678;5.806;2023-02-03T17:51:11;10.10;99.90
62573;DHT22;48626;51.678;5.806;2023-02-03T17:53:38;10.10;99.90
62573;DHT22;48626;51.678;5.806;2023-02-03T17:56:16;10.10;99.90
62573;DHT22;48626;51.678;5.806;2023-02-03T17:58:42;10.10;99.90
62573;DHT22;48626;51.678;5.806;2023-02-03T18:01:13;10.10;99.90
62573;DHT22;48626;51.678;5.806;2023-02-03T18:03:46;10.10;99.90
62573;DHT22;48626;51.678;5.806;2023-02-03T18:06:12;10.10;99.90
62573;DHT22;48626;51.678;5.806;2023-02-03T18:08:39;10.10;99.90
62573;DHT22;48626;51.678;5.806;2023-02-03T18:11:05;10.10;99.90
62573;DHT22;48626;51.678;5.806;2023-02-03T18:13:34;10.10;99.90
62573;DHT22;48626;51.678;5.806;2023-02-03T18:16:02;10.10;99.90
62573;DHT22;48626;51.678;5.806;2023-02-03T18:18:27;10.10;99.90
62573;DHT22;48626;51.678;5.806;2023-02-03T18:20:53;10.10;99.90
62573;DHT22;48626;51.678;5.806;2023-02-03T18:23:20;10.10;99.90
62573;DHT22;48626;51.678;5.806;2023-02-03T18:25:51;10.00;99.90
62573;DHT22;48626;51.678;5.806;2023-02-03T18:28:17;10.10;99.90
62573;DHT22;48626;51.678;5.806;2023-02-03T18:30:43;10.10;99.90
62573;DHT22;48626;51.678;5.806;2023-02-03T18:33:09;10.10;99.90
62573;DHT22;48626;51.678;5.806;2023-02-03T18:35:34;10.10;99.90
62573;DHT22;48626;51.678;5.806;2023-02-03T18:38:00;10.10;99.90
62573;DHT22;48626;51.678;5.806;2023-02-03T18:40:25;10.10;99.90